Time;durP1;ratioP1;P1;durP2;ratioP2;P2;SDS_P1;SDS_P2;PMS_P1;PMS_P2;Temp;Humidity;BMP_temperature;BMP_pressure;BME280_temperature;BME280_humidity;BME280_pressure;Samples;Min_cycle;Max_cycle;Signal;HPM_P1;HPM_P2
2021/09/27 00:00:37;;;;;;;43.33;28.27;;;17.30;99.40;;;;;;5031210;28;20021;-67
2021/09/27 00:03:03;;;;;;;35.72;25.42;;;17.20;99.40;;;;;;5021269;28;20040;-64
2021/09/27 00:05:31;;;;;;;31.15;24.83;;;17.30;99.40;;;;;;5027700;28;20017;-65
2021/09/27 00:07:57;;;;;;;37.38;27.58;;;17.20;99.30;;;;;;5025838;28;20018;-67
2021/09/27 00:10:28;;;;;;;37.38;28.10;;;17.20;99.40;;;;;;5027762;28;20381;-66
2021/09/27 00:12:54;;;;;;;;;;;17.20;99.50;;;;;;5024315;28;20021;-66
2021/09/27 00:15:31;;;;;;;42.95;28.73;;;17.20;99.40;;;;;;5037475;28;19967;-66
2021/09/27 00:17:57;;;;;;;40.70;28.27;;;17.20;99.50;;;;;;5029643;28;20091;-67
2021/09/27 00:20:23;;;;;;;35.40;27.00;;;17.20;99.50;;;;;;5019734;28;20502;-67
2021/09/27 00:22:50;;;;;;;36.63;28.10;;;17.20;99.50;;;;;;5017516;28;20033;-67
2021/09/27 00:25:19;;;;;;;40.95;28.55;;;17.10;99.50;;;;;;5021751;28;20017;-67
2021/09/27 00:27:45;;;;;;;40.75;24.88;;;17.10;99.40;;;;;;5020706;28;20061;-65
2021/09/27 00:30:13;;;;;;;28.67;23.52;;;17.10;99.40;;;;;;5035015;28;20143;-66
2021/09/27 00:32:40;;;;;;;37.42;26.15;;;17.00;99.30;;;;;;5028720;28;20091;-66
2021/09/27 00:35:08;;;;;;;45.38;28.65;;;17.00;99.40;;;;;;5023693;28;20358;-68
2021/09/27 00:37:34;;;;;;;42.50;28.92;;;17.10;99.50;;;;;;5024353;28;20489;-67
2021/09/27 00:40:00;;;;;;;37.72;26.80;;;17.10;99.50;;;;;;5025738;28;20126;-66
2021/09/27 00:42:25;;;;;;;38.88;25.85;;;17.10;99.50;;;;;;5022600;28;20412;-67
2021/09/27 00:44:51;;;;;;;38.13;25.98;;;17.10;99.50;;;;;;5036362;28;20025;-67
2021/09/27 00:47:17;;;;;;;34.67;26.25;;;17.00;99.50;;;;;;5026663;28;20021;-65
2021/09/27 00:49:43;;;;;;;37.55;26.25;;;17.00;99.60;;;;;;5035644;28;20041;-67
2021/09/27 00:52:09;;;;;;;41.28;28.15;;;17.00;99.60;;;;;;5026704;28;20091;-67
2021/09/27 00:54:36;;;;;;;39.25;28.10;;;17.00;99.60;;;;;;5026400;28;20033;-66
2021/09/27 00:57:14;;;;;;;42.42;28.77;;;17.00;99.70;;;;;;5022862;28;20527;-67
2021/09/27 00:59:41;;;;;;;45.95;31.27;;;17.10;99.70;;;;;;5022747;28;20072;-67
2021/09/27 01:02:09;;;;;;;42.10;32.03;;;17.00;99.70;;;;;;5020238;28;20136;-66
2021/09/27 01:04:36;;;;;;;48.83;31.92;;;17.10;99.70;;;;;;5020960;28;20032;-67
2021/09/27 01:07:13;;;;;;;49.00;32.63;;;17.10;99.70;;;;;;5025133;28;20377;-64
2021/09/27 01:09:53;;;;;;;52.47;33.67;;;17.10;99.70;;;;;;5025770;28;20033;-67
2021/09/27 01:12:33;;;;;;;47.97;32.40;;;17.10;99.80;;;;;;5024485;28;20037;-67
2021/09/27 01:15:17;;;;;;;63.40;34.40;;;17.10;99.80;;;;;;5035330;28;20036;-67
2021/09/27 01:18:28;;;;;;;51.33;33.30;;;17.10;99.80;;;;;;5022424;28;20268;-66
2021/09/27 01:21:15;;;;;;;52.67;34.08;;;17.10;99.80;;;;;;5020101;28;20041;-65
2021/09/27 01:24:06;;;;;;;56.80;35.20;;;17.20;99.90;;;;;;5024429;28;20079;-65
2021/09/27 01:26:40;;;;;;;56.47;35.17;;;17.20;99.90;;;;;;5020185;28;20032;-67
2021/09/27 01:29:36;;;;;;;56.47;37.13;;;17.30;99.90;;;;;;5021179;28;20104;-67
2021/09/27 01:32:29;;;;;;;58.72;35.80;;;17.30;99.90;;;;;;5021930;28;20104;-67
2021/09/27 01:35:17;;;;;;;53.97;35.80;;;17.30;99.90;;;;;;5024832;28;20030;-67
2021/09/27 01:38:10;;;;;;;57.35;37.38;;;17.30;99.90;;;;;;5021886;28;20030;-67
2021/09/27 01:40:57;;;;;;;58.00;35.65;;;17.30;99.90;;;;;;5020611;28;20034;-65
2021/09/27 01:43:31;;;;;;;54.70;36.28;;;17.30;99.90;;;;;;5024306;28;20092;-67
2021/09/27 01:46:13;;;;;;;61.58;36.38;;;17.30;99.90;;;;;;5027325;28;20539;-67
2021/09/27 01:48:48;;;;;;;58.15;36.92;;;17.30;99.90;;;;;;5026320;28;20452;-64
2021/09/27 01:51:23;;;;;;;61.17;37.33;;;17.30;99.90;;;;;;5020143;28;20258;-67
2021/09/27 01:54:05;;;;;;;57.63;37.50;;;17.40;99.90;;;;;;5026958;28;20110;-66
2021/09/27 01:56:48;;;;;;;62.22;37.20;;;17.30;99.90;;;;;;5030709;28;20029;-66
2021/09/27 01:59:40;;;;;;;62.97;38.30;;;17.30;99.90;;;;;;5022905;28;20120;-66
2021/09/27 02:02:31;;;;;;;51.10;36.28;;;17.30;99.90;;;;;;5020710;28;20025;-66
2021/09/27 02:05:11;;;;;;;61.30;37.42;;;17.30;99.90;;;;;;5026561;28;20064;-66
2021/09/27 02:07:57;;;;;;;59.38;38.97;;;17.30;99.90;;;;;;5021151;28;20038;-68
2021/09/27 02:10:35;;;;;;;61.60;38.15;;;17.30;99.90;;;;;;5015588;28;20120;-65
2021/09/27 02:13:17;;;;;;;54.92;37.05;;;17.30;99.90;;;;;;5026811;28;20025;-67
2021/09/27 02:15:49;;;;;;;60.17;38.17;;;17.30;99.90;;;;;;5025873;28;20032;-67
2021/09/27 02:18:29;;;;;;;58.28;37.85;;;17.30;99.90;;;;;;5018405;28;20509;-67
2021/09/27 02:21:01;;;;;;;61.13;37.70;;;17.20;99.90;;;;;;5025465;28;20121;-65
2021/09/27 02:24:04;;;;;;;60.50;38.80;;;17.30;99.90;;;;;;5022277;28;20160;-66
2021/09/27 02:26:30;;;;;;;63.03;38.03;;;17.20;99.90;;;;;;5023860;28;20022;-66
2021/09/27 02:28:57;;;;;;;51.90;37.17;;;17.30;99.90;;;;;;5021542;28;20586;-67
2021/09/27 02:31:32;;;;;;;55.47;38.35;;;17.20;99.90;;;;;;5023448;28;20065;-67
2021/09/27 02:34:30;;;;;;;58.35;38.47;;;17.20;99.90;;;;;;5022801;28;20036;-67
2021/09/27 02:37:08;;;;;;;63.30;38.63;;;17.10;99.90;;;;;;5021638;28;20124;-67
2021/09/27 02:39:50;;;;;;;65.95;40.85;;;17.20;99.90;;;;;;5020348;28;20230;-67
2021/09/27 02:42:39;;;;;;;61.00;38.60;;;17.20;99.90;;;;;;5020160;28;20432;-66
2021/09/27 02:45:07;;;;;;;57.45;37.47;;;17.20;99.90;;;;;;5026490;28;20646;-66
2021/09/27 02:48:17;;;;;;;56.08;36.42;;;17.10;99.90;;;;;;5021865;28;20046;-66
2021/09/27 02:50:47;;;;;;;59.53;36.80;;;17.10;99.90;;;;;;5020234;28;20036;-66
2021/09/27 02:53:14;;;;;;;58.40;36.72;;;17.10;99.90;;;;;;5024995;28;20017;-67
2021/09/27 02:55:57;;;;;;;57.67;37.35;;;17.10;99.90;;;;;;5022346;28;20018;-65
2021/09/27 02:58:30;;;;;;;53.70;35.88;;;17.10;99.90;;;;;;5021668;28;20037;-65
2021/09/27 03:01:03;;;;;;;58.72;38.03;;;17.10;99.90;;;;;;5020096;28;20025;-67
2021/09/27 03:04:03;;;;;;;57.78;36.67;;;17.10;99.90;;;;;;5022706;28;20480;-67
2021/09/27 03:06:56;;;;;;;64.65;37.33;;;17.10;99.90;;;;;;5027919;28;20029;-66
2021/09/27 03:10:00;;;;;;;58.25;37.13;;;17.10;99.90;;;;;;5015316;28;20600;-67
2021/09/27 03:12:41;;;;;;;55.75;36.03;;;17.00;99.90;;;;;;5020667;28;20029;-67
2021/09/27 03:15:07;;;;;;;50.15;34.83;;;17.00;99.90;;;;;;5029742;28;20393;-67
2021/09/27 03:17:53;;;;;;;61.63;36.92;;;17.10;99.90;;;;;;5020350;28;20029;-67
2021/09/27 03:20:49;;;;;;;57.42;37.03;;;17.10;99.90;;;;;;5013431;28;20083;-65
2021/09/27 03:23:27;;;;;;;57.05;36.38;;;17.10;99.90;;;;;;5032689;28;20064;-65
2021/09/27 03:26:07;;;;;;;57.95;36.50;;;17.00;99.90;;;;;;5021566;28;20037;-66
2021/09/27 03:28:56;;;;;;;54.03;35.67;;;17.00;99.90;;;;;;5024108;28;20039;-65
2021/09/27 03:31:45;;;;;;;50.60;34.28;;;17.00;99.90;;;;;;5016283;28;20033;-65
2021/09/27 03:34:26;;;;;;;57.58;35.05;;;17.00;99.90;;;;;;5020185;28;20021;-67
2021/09/27 03:37:19;;;;;;;52.60;33.88;;;17.00;99.90;;;;;;5019767;28;20463;-67
2021/09/27 03:40:03;;;;;;;51.55;33.50;;;17.00;99.80;;;;;;5020628;28;20371;-67
2021/09/27 03:42:53;;;;;;;49.05;33.38;;;17.00;99.90;;;;;;5015855;28;20026;-67
2021/09/27 03:45:29;;;;;;;56.03;34.55;;;16.90;99.90;;;;;;5027495;28;20023;-66
2021/09/27 03:48:10;;;;;;;56.13;35.33;;;16.80;99.80;;;;;;5020141;28;20038;-64
2021/09/27 03:50:43;;;;;;;63.38;35.47;;;16.90;99.90;;;;;;5025713;28;20191;-67
2021/09/27 03:53:22;;;;;;;56.88;37.50;;;16.90;99.90;;;;;;5028211;28;20339;-65
2021/09/27 03:56:02;;;;;;;60.67;35.42;;;16.90;99.90;;;;;;5024343;28;20045;-67
2021/09/27 03:58:56;;;;;;;62.38;37.58;;;16.90;99.90;;;;;;5029180;28;20083;-65
2021/09/27 04:01:35;;;;;;;56.58;35.67;;;16.90;99.90;;;;;;5024631;28;20033;-66
2021/09/27 04:04:14;;;;;;;59.15;35.95;;;16.90;99.90;;;;;;5028458;28;20028;-66
2021/09/27 04:06:49;;;;;;;60.63;38.45;;;16.90;99.90;;;;;;5029581;28;20057;-66
2021/09/27 04:09:44;;;;;;;61.72;38.70;;;16.90;99.90;;;;;;5022417;28;20063;-67
2021/09/27 04:12:41;;;;;;;62.40;38.20;;;16.90;99.90;;;;;;5033689;28;20111;-67
2021/09/27 04:15:06;;;;;;;62.88;38.47;;;16.90;99.90;;;;;;5024023;28;20056;-67
2021/09/27 04:17:32;;;;;;;67.72;38.58;;;16.90;99.90;;;;;;5024781;28;20257;-66
2021/09/27 04:20:17;;;;;;;59.72;37.08;;;16.90;99.90;;;;;;5027655;28;20057;-62
2021/09/27 04:22:59;;;;;;;63.30;37.25;;;16.80;99.90;;;;;;5019982;28;20027;-65
2021/09/27 04:25:27;;;;;;;59.47;37.17;;;16.80;99.90;;;;;;5016420;28;20389;-64
2021/09/27 04:28:28;;;;;;;66.28;37.85;;;16.80;99.90;;;;;;5024267;28;20053;-64
2021/09/27 04:31:14;;;;;;;58.50;36.13;;;16.80;99.90;;;;;;5023573;28;20029;-63
2021/09/27 04:34:17;;;;;;;59.47;36.97;;;16.80;99.90;;;;;;5026967;28;20516;-63
2021/09/27 04:36:46;;;;;;;69.88;36.38;;;16.80;99.90;;;;;;5024342;28;20033;-63
2021/09/27 04:39:17;;;;;;;59.05;36.50;;;16.80;99.90;;;;;;5022722;28;20442;-64
2021/09/27 04:42:07;;;;;;;68.03;36.30;;;16.80;99.90;;;;;;5027550;28;20176;-64
2021/09/27 04:44:49;;;;;;;58.97;35.80;;;16.80;99.90;;;;;;5028652;28;20420;-62
2021/09/27 04:47:27;;;;;;;67.78;36.42;;;16.80;99.90;;;;;;5028309;28;20043;-63
2021/09/27 04:50:14;;;;;;;67.95;36.63;;;16.80;99.90;;;;;;5031468;28;20396;-63
2021/09/27 04:53:01;;;;;;;63.55;36.97;;;16.80;99.90;;;;;;5022762;28;20057;-63
2021/09/27 04:56:04;;;;;;;64.13;37.55;;;16.80;99.90;;;;;;5022800;28;20022;-64
2021/09/27 04:58:40;;;;;;;64.45;36.80;;;16.80;99.90;;;;;;5023716;28;20503;-63
2021/09/27 05:01:34;;;;;;;73.85;38.60;;;16.70;99.90;;;;;;5019596;28;20105;-64
2021/09/27 05:04:09;;;;;;;69.53;37.38;;;16.70;99.90;;;;;;5021210;28;20026;-62
2021/09/27 05:07:12;;;;;;;79.90;38.15;;;16.80;99.90;;;;;;5021895;28;20538;-64
2021/09/27 05:09:47;;;;;;;73.78;37.58;;;16.70;99.90;;;;;;5027071;28;20461;-64
2021/09/27 05:12:26;;;;;;;79.75;39.15;;;16.70;99.90;;;;;;5022764;28;20037;-64
2021/09/27 05:15:30;;;;;;;82.95;39.33;;;16.70;99.90;;;;;;5021318;28;20032;-64
2021/09/27 05:18:20;;;;;;;76.22;38.40;;;16.70;99.90;;;;;;5012767;28;20098;-62
2021/09/27 05:21:00;;;;;;;83.75;39.38;;;16.70;99.90;;;;;;5021851;28;20066;-63
2021/09/27 05:23:40;;;;;;;85.35;40.17;;;16.60;99.90;;;;;;5020804;28;20025;-63
2021/09/27 05:26:40;;;;;;;85.93;39.50;;;16.60;99.90;;;;;;5027476;28;20091;-64
2021/09/27 05:29:43;;;;;;;76.15;37.65;;;16.60;99.90;;;;;;5025562;28;20033;-63
2021/09/27 05:32:30;;;;;;;82.63;39.00;;;16.60;99.90;;;;;;5014750;28;20038;-66
2021/09/27 05:35:19;;;;;;;81.47;39.28;;;16.60;99.90;;;;;;5023822;28;20422;-66
2021/09/27 05:38:06;;;;;;;86.82;39.60;;;16.60;99.90;;;;;;5025713;28;20025;-65
2021/09/27 05:40:45;;;;;;;91.05;39.63;;;16.60;99.90;;;;;;5021798;28;20029;-66
2021/09/27 05:43:33;;;;;;;90.22;39.80;;;16.60;99.90;;;;;;5028445;28;20434;-66
2021/09/27 05:46:52;;;;;;;95.47;40.00;;;16.60;99.90;;;;;;5016524;28;20049;-66
2021/09/27 05:49:31;;;;;;;94.18;38.65;;;16.60;99.90;;;;;;5026893;28;20037;-65
2021/09/27 05:52:06;;;;;;;82.97;39.15;;;16.60;99.90;;;;;;5019523;28;20037;-66
2021/09/27 05:54:46;;;;;;;96.88;39.45;;;16.60;99.90;;;;;;5018112;28;20323;-65
2021/09/27 05:57:47;;;;;;;88.65;38.50;;;16.70;99.90;;;;;;5022144;28;20045;-66
2021/09/27 06:00:24;;;;;;;97.38;38.53;;;16.70;99.90;;;;;;5023968;28;20095;-65
2021/09/27 06:03:09;;;;;;;84.55;37.63;;;16.70;99.90;;;;;;5033121;28;20037;-66
2021/09/27 06:06:02;;;;;;;92.85;38.03;;;16.70;99.90;;;;;;5026392;28;20164;-66
2021/09/27 06:08:52;;;;;;;96.85;38.75;;;16.70;99.90;;;;;;5018528;28;20044;-66
2021/09/27 06:11:47;;;;;;;83.28;37.65;;;16.70;99.90;;;;;;5027316;28;20086;-66
2021/09/27 06:14:16;;;;;;;75.88;35.25;;;16.70;99.90;;;;;;5015596;28;20216;-65
2021/09/27 06:16:59;;;;;;;78.00;35.45;;;16.80;99.90;;;;;;5031304;28;20661;-66
2021/09/27 06:19:44;;;;;;;78.10;36.58;;;16.80;99.90;;;;;;5023007;28;20025;-65
2021/09/27 06:22:19;;;;;;;79.68;35.38;;;16.80;99.90;;;;;;5019450;28;20021;-66
2021/09/27 06:25:09;;;;;;;80.90;37.10;;;16.80;99.90;;;;;;5021838;28;20044;-65
2021/09/27 06:27:58;;;;;;;65.70;33.90;;;16.80;99.90;;;;;;5022411;28;20087;-64
2021/09/27 06:30:42;;;;;;;73.22;35.38;;;16.80;99.90;;;;;;5028058;28;20033;-65
2021/09/27 06:33:33;;;;;;;68.88;34.20;;;16.90;99.90;;;;;;5033959;28;20036;-66
2021/09/27 06:36:03;;;;;;;;;;;16.90;99.90;;;;;;5009379;28;20455;-65
2021/09/27 06:38:32;;;;;;;67.32;31.63;;;16.90;99.90;;;;;;5025216;28;20003;-65
2021/09/27 06:40:58;;;;;;;65.40;32.83;;;16.90;99.90;;;;;;5023290;28;20029;-65
2021/09/27 06:43:25;;;;;;;63.47;31.63;;;16.90;99.90;;;;;;5022688;28;20512;-65
2021/09/27 06:45:52;;;;;;;60.65;31.15;;;17.00;99.90;;;;;;5030686;28;20034;-66
2021/09/27 06:48:19;;;;;;;57.65;30.98;;;17.00;99.90;;;;;;5030438;28;20065;-65
2021/09/27 06:50:45;;;;;;;54.05;29.95;;;17.00;99.90;;;;;;5031782;28;20033;-66
2021/09/27 06:53:10;;;;;;;57.63;29.88;;;17.00;99.90;;;;;;5026142;28;20025;-66
2021/09/27 06:55:36;;;;;;;56.28;29.05;;;17.10;99.90;;;;;;5037792;28;20484;-65
2021/09/27 06:58:02;;;;;;;53.88;28.63;;;17.10;99.90;;;;;;5022304;28;20048;-64
2021/09/27 07:00:28;;;;;;;48.17;27.88;;;17.10;99.90;;;;;;5021049;28;20025;-66
2021/09/27 07:02:53;;;;;;;49.17;27.27;;;17.20;99.90;;;;;;5019151;28;20026;-65
2021/09/27 07:05:19;;;;;;;47.03;27.73;;;17.20;99.90;;;;;;5031217;28;20485;-65
2021/09/27 07:07:44;;;;;;;48.35;26.25;;;17.20;99.80;;;;;;5017779;28;20314;-64
2021/09/27 07:10:16;;;;;;;41.22;24.98;;;17.20;99.80;;;;;;5027922;28;20117;-65
2021/09/27 07:12:42;;;;;;;43.25;25.48;;;17.20;99.80;;;;;;5024286;28;20037;-64
2021/09/27 07:15:08;;;;;;;44.00;25.77;;;17.30;99.80;;;;;;5035115;28;20342;-64
2021/09/27 07:17:36;;;;;;;45.25;24.90;;;17.50;99.80;;;;;;5020665;28;20527;-64
2021/09/27 07:20:25;;;;;;;41.78;25.27;;;17.40;99.60;;;;;;5025532;28;20492;-65
2021/09/27 07:22:51;;;;;;;37.92;23.75;;;17.50;99.60;;;;;;5016129;28;20025;-65
2021/09/27 07:25:17;;;;;;;33.47;22.80;;;17.50;99.50;;;;;;5023845;28;20546;-65
2021/09/27 07:27:43;;;;;;;34.95;23.65;;;17.50;99.30;;;;;;5027840;28;20091;-65
2021/09/27 07:30:11;;;;;;;36.35;23.27;;;17.60;99.30;;;;;;5047271;28;20087;-65
2021/09/27 07:32:38;;;;;;;31.55;21.88;;;17.60;99.20;;;;;;5040164;28;20030;-65
2021/09/27 07:35:05;;;;;;;34.10;22.05;;;17.70;99.20;;;;;;5039269;28;20264;-65
2021/09/27 07:37:31;;;;;;;35.92;24.38;;;17.90;99.10;;;;;;5022182;28;20025;-64
2021/09/27 07:39:56;;;;;;;32.53;22.45;;;17.90;99.00;;;;;;5027944;28;20500;-65
2021/09/27 07:42:22;;;;;;;35.22;22.35;;;17.80;98.90;;;;;;5027404;28;20029;-65
2021/09/27 07:44:47;;;;;;;35.40;22.65;;;17.70;98.70;;;;;;5036234;28;20034;-64
2021/09/27 07:47:13;;;;;;;33.75;23.05;;;17.70;98.70;;;;;;5022936;28;20869;-65
2021/09/27 07:49:39;;;;;;;33.50;22.02;;;17.70;98.80;;;;;;5033330;28;20326;-66
2021/09/27 07:52:05;;;;;;;35.10;22.23;;;17.70;98.60;;;;;;5024893;28;20128;-65
2021/09/27 07:54:31;;;;;;;31.98;22.65;;;17.70;98.50;;;;;;5036983;28;20486;-65
2021/09/27 07:56:57;;;;;;;30.65;21.80;;;17.80;98.40;;;;;;5029253;28;20524;-64
2021/09/27 07:59:22;;;;;;;35.35;22.40;;;17.70;98.20;;;;;;5030732;28;20400;-64
2021/09/27 08:01:48;;;;;;;30.77;22.55;;;17.70;98.30;;;;;;5036220;28;20025;-65
2021/09/27 08:04:15;;;;;;;33.60;23.13;;;17.60;98.20;;;;;;5030071;28;20059;-66
2021/09/27 08:06:42;;;;;;;36.20;23.60;;;17.70;98.30;;;;;;5030293;28;20568;-65
2021/09/27 08:09:09;;;;;;;34.75;23.58;;;17.70;98.30;;;;;;5030030;28;20140;-65
2021/09/27 08:11:39;;;;;;;34.42;22.80;;;17.70;98.20;;;;;;5026079;28;20037;-66
2021/09/27 08:14:04;;;;;;;31.90;23.17;;;17.70;98.10;;;;;;5036255;28;20139;-66
2021/09/27 08:16:31;;;;;;;37.63;23.33;;;17.80;98.20;;;;;;5030722;28;20132;-64
2021/09/27 08:18:57;;;;;;;35.42;23.08;;;17.70;97.60;;;;;;5032554;28;20036;-65
2021/09/27 08:21:23;;;;;;;31.13;21.48;;;17.80;97.90;;;;;;5019920;28;20033;-65
2021/09/27 08:23:48;;;;;;;30.08;22.33;;;18.00;97.80;;;;;;5022624;28;20025;-65
2021/09/27 08:26:14;;;;;;;33.03;22.17;;;18.00;97.60;;;;;;5026409;28;20040;-65
2021/09/27 08:28:40;;;;;;;32.17;20.65;;;18.00;97.30;;;;;;5025777;28;20038;-65
2021/09/27 08:31:14;;;;;;;30.88;21.20;;;18.00;96.90;;;;;;5026978;28;20495;-66
2021/09/27 08:33:40;;;;;;;28.23;21.40;;;18.10;97.10;;;;;;5025940;28;20033;-66
2021/09/27 08:36:09;;;;;;;32.45;22.35;;;18.30;97.10;;;;;;5034841;28;20385;-65
2021/09/27 08:38:38;;;;;;;29.38;21.90;;;18.30;96.80;;;;;;5019630;28;20029;-65
2021/09/27 08:41:07;;;;;;;32.00;22.40;;;18.50;96.40;;;;;;5028874;28;20043;-65
2021/09/27 08:43:40;;;;;;;29.67;21.27;;;18.50;96.20;;;;;;5022173;28;20105;-65
2021/09/27 08:46:11;;;;;;;30.73;21.42;;;18.60;96.00;;;;;;5021787;28;20032;-65
2021/09/27 08:48:46;;;;;;;27.60;21.17;;;18.70;95.30;;;;;;5024051;28;20674;-65
2021/09/27 08:51:12;;;;;;;26.13;20.55;;;18.80;94.60;;;;;;5017742;28;20034;-65
2021/09/27 08:53:41;;;;;;;28.63;21.08;;;18.70;95.00;;;;;;5023596;28;20029;-65
2021/09/27 08:56:29;;;;;;;30.77;20.13;;;18.60;95.20;;;;;;5024674;28;20091;-65
2021/09/27 08:59:14;;;;;;;28.15;20.50;;;18.50;95.00;;;;;;5032861;28;20033;-65
2021/09/27 09:02:05;;;;;;;29.27;22.10;;;18.50;95.40;;;;;;5023308;28;20029;-66
2021/09/27 09:04:56;;;;;;;27.38;19.88;;;18.60;95.50;;;;;;5030851;28;20175;-65
2021/09/27 09:07:22;;;;;;;;;;;18.70;95.70;;;;;;5030548;28;20029;-65
2021/09/27 09:10:02;;;;;;;28.60;19.15;;;19.00;95.60;;;;;;5032719;28;19916;-65
2021/09/27 09:12:35;;;;;;;23.48;18.92;;;19.00;94.70;;;;;;5026779;28;20033;-65
2021/09/27 09:15:21;;;;;;;24.33;18.63;;;19.10;94.90;;;;;;5035085;28;20131;-65
2021/09/27 09:17:58;;;;;;;26.15;18.95;;;19.00;94.40;;;;;;5023912;28;20048;-65
2021/09/27 09:20:52;;;;;;;23.95;18.25;;;19.20;94.90;;;;;;5029359;28;20022;-64
2021/09/27 09:23:30;;;;;;;25.00;18.55;;;19.20;94.10;;;;;;5025857;28;20392;-65
2021/09/27 09:25:56;;;;;;;24.85;18.60;;;19.10;94.80;;;;;;5032367;28;20038;-64
2021/09/27 09:28:22;;;;;;;27.48;17.38;;;19.00;94.30;;;;;;5031848;28;20021;-65
2021/09/27 09:30:53;;;;;;;24.80;17.77;;;19.20;93.90;;;;;;5028930;28;20245;-65
2021/09/27 09:33:35;;;;;;;;;;;19.20;93.90;;;;;;5033704;28;20119;-65
2021/09/27 09:36:01;;;;;;;22.88;16.95;;;19.20;94.20;;;;;;5019415;28;19962;-65
2021/09/27 09:38:27;;;;;;;23.38;17.27;;;19.30;94.60;;;;;;5032252;28;20079;-65
2021/09/27 09:40:56;;;;;;;25.30;18.30;;;19.50;94.00;;;;;;5027845;28;20041;-64
2021/09/27 09:43:46;;;;;;;23.08;16.70;;;19.60;93.50;;;;;;5020382;28;20557;-65
2021/09/27 09:46:29;;;;;;;20.23;17.00;;;19.90;92.90;;;;;;5024111;28;20034;-67
2021/09/27 09:49:01;;;;;;;19.15;15.20;;;19.90;92.30;;;;;;5022806;28;20034;-65
2021/09/27 09:51:43;;;;;;;19.95;15.45;;;20.00;91.00;;;;;;5026227;28;20033;-65
2021/09/27 09:54:19;;;;;;;23.30;15.52;;;19.90;91.30;;;;;;5019145;28;20030;-66
2021/09/27 09:56:58;;;;;;;18.05;14.13;;;19.80;91.90;;;;;;5021934;28;20108;-66
2021/09/27 09:59:32;;;;;;;19.45;14.27;;;19.90;91.40;;;;;;5025758;28;20144;-65
2021/09/27 10:01:59;;;;;;;19.20;13.63;;;20.00;90.50;;;;;;5021307;28;20071;-65
2021/09/27 10:04:46;;;;;;;17.85;13.80;;;20.00;91.50;;;;;;5032210;28;20139;-65
2021/09/27 10:07:17;;;;;;;21.58;15.13;;;19.80;91.70;;;;;;5019232;28;20480;-65
2021/09/27 10:09:58;;;;;;;21.33;15.15;;;19.80;91.90;;;;;;5028965;28;20562;-64
2021/09/27 10:12:42;;;;;;;19.67;13.98;;;19.60;91.80;;;;;;5021046;28;20504;-65
2021/09/27 10:15:29;;;;;;;17.25;14.60;;;19.80;92.50;;;;;;5017467;28;20136;-65
2021/09/27 10:18:15;;;;;;;19.85;14.73;;;19.80;92.40;;;;;;5019237;28;20067;-64
2021/09/27 10:21:03;;;;;;;21.05;14.10;;;20.20;92.60;;;;;;5020402;28;20029;-64
2021/09/27 10:23:41;;;;;;;19.67;13.82;;;20.60;91.70;;;;;;5020558;28;20025;-65
2021/09/27 10:26:34;;;;;;;15.32;11.65;;;20.70;90.20;;;;;;5017548;28;20021;-65
2021/09/27 10:29:11;;;;;;;16.67;12.20;;;21.10;89.50;;;;;;5024085;28;20031;-66
2021/09/27 10:31:39;;;;;;;16.58;10.80;;;21.30;88.40;;;;;;5020742;28;20480;-65
2021/09/27 10:34:14;;;;;;;17.60;11.60;;;21.40;86.80;;;;;;5026974;28;20029;-64
2021/09/27 10:36:44;;;;;;;14.07;10.02;;;21.50;87.80;;;;;;5018932;28;20099;-65
2021/09/27 10:39:14;;;;;;;13.45;9.52;;;21.60;86.30;;;;;;5022222;28;20032;-65
2021/09/27 10:42:02;;;;;;;14.80;9.45;;;21.90;85.80;;;;;;5031227;28;20107;-66
2021/09/27 10:44:28;;;;;;;13.65;8.98;;;21.40;83.00;;;;;;5025204;28;20025;-66
2021/09/27 10:47:02;;;;;;;13.50;8.80;;;21.90;85.10;;;;;;5021074;28;20025;-66
2021/09/27 10:49:48;;;;;;;13.10;8.75;;;22.00;83.60;;;;;;5022749;28;20095;-66
2021/09/27 10:52:16;;;;;;;12.40;8.30;;;22.10;82.90;;;;;;5016964;28;20830;-64
2021/09/27 10:54:55;;;;;;;11.20;7.72;;;21.90;83.20;;;;;;5020647;28;20155;-64
2021/09/27 10:57:22;;;;;;;14.60;8.40;;;22.00;83.60;;;;;;5020687;28;20056;-66
2021/09/27 11:00:02;;;;;;;12.95;9.25;;;21.70;82.10;;;;;;5019650;28;20404;-65
2021/09/27 11:02:42;;;;;;;10.93;8.48;;;22.20;82.40;;;;;;5018834;28;20025;-66
2021/09/27 11:05:14;;;;;;;10.57;7.93;;;22.20;80.50;;;;;;5030263;28;20029;-66
2021/09/27 11:07:50;;;;;;;10.73;8.68;;;22.10;80.90;;;;;;5027984;28;20030;-66
2021/09/27 11:10:37;;;;;;;10.93;7.72;;;22.40;80.80;;;;;;5027119;28;20029;-66
2021/09/27 11:13:03;;;;;;;13.15;8.05;;;22.30;81.50;;;;;;5018421;28;20032;-65
2021/09/27 11:15:33;;;;;;;12.40;7.40;;;22.20;80.80;;;;;;5023979;28;20266;-66
2021/09/27 11:18:12;;;;;;;12.00;7.50;;;22.30;80.70;;;;;;5024915;28;20376;-64
2021/09/27 11:20:41;;;;;;;10.85;7.60;;;22.30;81.10;;;;;;5021010;28;20086;-66
2021/09/27 11:23:23;;;;;;;11.65;7.95;;;22.10;81.30;;;;;;5024232;28;20029;-64
2021/09/27 11:26:07;;;;;;;13.93;8.75;;;21.80;81.40;;;;;;5025205;28;20026;-66
2021/09/27 11:28:48;;;;;;;14.57;8.57;;;22.10;79.90;;;;;;5025454;28;20041;-66
2021/09/27 11:31:19;;;;;;;13.07;7.60;;;22.00;79.70;;;;;;5024342;28;20396;-63
2021/09/27 11:33:58;;;;;;;11.60;7.78;;;21.50;81.00;;;;;;5018966;28;20488;-66
2021/09/27 11:36:32;;;;;;;10.98;7.78;;;21.90;80.90;;;;;;5013819;28;20041;-65
2021/09/27 11:39:08;;;;;;;13.80;8.93;;;21.90;81.90;;;;;;5023332;28;20055;-66
2021/09/27 11:41:36;;;;;;;8.95;7.43;;;21.70;81.60;;;;;;5024280;28;20083;-65
2021/09/27 11:44:31;;;;;;;10.93;7.78;;;21.70;82.20;;;;;;5035576;28;20030;-65
2021/09/27 11:47:15;;;;;;;12.02;8.18;;;21.80;82.00;;;;;;5018902;28;20361;-66
2021/09/27 11:50:04;;;;;;;11.70;8.05;;;21.70;81.40;;;;;;5026836;28;20440;-66
2021/09/27 11:52:32;;;;;;;8.75;7.18;;;22.10;81.30;;;;;;5033285;28;20041;-65
2021/09/27 11:55:08;;;;;;;11.40;7.47;;;22.00;80.60;;;;;;5028748;28;20116;-63
2021/09/27 11:57:52;;;;;;;10.85;6.75;;;22.20;80.50;;;;;;5026880;28;20044;-65
2021/09/27 12:00:28;;;;;;;11.15;7.50;;;22.40;79.50;;;;;;5022618;28;20037;-64
2021/09/27 12:03:12;;;;;;;9.90;7.10;;;22.60;76.70;;;;;;5024566;28;20026;-64
2021/09/27 12:05:59;;;;;;;9.43;6.75;;;23.30;77.50;;;;;;5033062;28;20382;-66
2021/09/27 12:08:34;;;;;;;9.57;6.30;;;24.00;72.90;;;;;;5021335;28;20444;-66
2021/09/27 12:11:01;;;;;;;10.15;6.57;;;23.90;71.90;;;;;;5026119;28;20033;-62
2021/09/27 12:13:39;;;;;;;9.73;6.65;;;23.60;72.50;;;;;;5031937;28;20109;-63
2021/09/27 12:16:13;;;;;;;11.45;7.20;;;23.20;74.40;;;;;;5024544;28;20025;-65
2021/09/27 12:18:44;;;;;;;14.15;7.00;;;23.30;76.30;;;;;;5024059;28;20025;-65
2021/09/27 12:21:24;;;;;;;9.52;6.22;;;23.20;74.80;;;;;;5036703;28;20021;-65
2021/09/27 12:24:07;;;;;;;10.27;6.00;;;23.60;73.80;;;;;;5026216;28;20033;-65
2021/09/27 12:26:38;;;;;;;9.55;6.60;;;23.70;72.80;;;;;;5028293;28;20434;-66
2021/09/27 12:29:17;;;;;;;9.13;6.50;;;23.70;74.70;;;;;;5036371;28;20036;-65
2021/09/27 12:31:55;;;;;;;7.93;6.53;;;23.30;74.20;;;;;;5028071;28;20082;-65
2021/09/27 12:34:25;;;;;;;10.50;6.68;;;22.70;75.50;;;;;;5024141;28;20025;-65
2021/09/27 12:36:51;;;;;;;9.80;6.13;;;22.40;76.80;;;;;;5026957;28;20037;-65
2021/09/27 12:39:22;;;;;;;8.57;6.45;;;22.30;76.50;;;;;;5034241;28;20037;-65
2021/09/27 12:41:49;;;;;;;8.45;6.60;;;22.30;77.70;;;;;;5024434;28;20025;-62
2021/09/27 12:44:22;;;;;;;8.70;6.05;;;22.10;76.80;;;;;;5024596;28;20439;-62
2021/09/27 12:46:50;;;;;;;9.85;6.30;;;22.20;78.40;;;;;;5024785;28;20495;-62
2021/09/27 12:49:25;;;;;;;9.25;5.57;;;22.00;77.70;;;;;;5027707;28;20075;-62
2021/09/27 12:51:55;;;;;;;9.23;6.45;;;22.40;77.50;;;;;;5019823;28;20021;-62
2021/09/27 12:54:36;;;;;;;12.07;6.53;;;22.70;76.10;;;;;;5025775;28;20025;-62
2021/09/27 12:57:19;;;;;;;12.73;6.78;;;22.60;76.40;;;;;;5025759;28;20496;-63
2021/09/27 12:59:45;;;;;;;10.52;6.82;;;22.70;76.10;;;;;;5022964;28;20095;-62
2021/09/27 13:02:13;;;;;;;8.73;6.65;;;22.60;75.30;;;;;;5020485;28;20038;-61
2021/09/27 13:05:03;;;;;;;9.88;6.60;;;22.60;77.90;;;;;;5022876;28;20516;-61
2021/09/27 13:07:39;;;;;;;10.77;7.53;;;22.70;75.50;;;;;;5024195;28;20029;-61
2021/09/27 13:10:22;;;;;;;10.63;6.95;;;22.80;75.90;;;;;;5026789;28;20209;-62
2021/09/27 13:13:13;;;;;;;9.10;7.18;;;22.80;74.50;;;;;;5020790;28;20079;-60
2021/09/27 13:15:58;;;;;;;11.27;6.75;;;22.90;74.20;;;;;;5025936;28;20373;-60
2021/09/27 13:18:33;;;;;;;9.65;6.38;;;22.80;75.30;;;;;;5022618;28;20408;-60
2021/09/27 13:21:26;;;;;;;10.45;6.28;;;22.50;75.60;;;;;;5018351;28;20068;-61